createdAt,value
2019-03-24T00:02:32.535Z,22.32
2019-03-24T00:05:07.360Z,21.95
2019-03-24T00:07:41.968Z,23.22
2019-03-24T00:10:16.570Z,22.02
2019-03-24T00:12:51.270Z,23.38
2019-03-24T00:15:26.755Z,23.07
2019-03-24T00:18:01.503Z,22.15
2019-03-24T00:20:36.020Z,23.07
2019-03-24T00:23:10.643Z,23.60
2019-03-24T00:25:45.332Z,22.82
2019-03-24T00:28:20.031Z,22.90
2019-03-24T00:30:54.844Z,23.35
2019-03-24T00:33:29.441Z,22.62
2019-03-24T00:36:04.154Z,23.25
2019-03-24T00:38:38.578Z,22.70
2019-03-24T00:41:13.217Z,22.45
2019-03-24T00:43:47.600Z,22.67
2019-03-24T00:46:22.098Z,23.38
2019-03-24T00:48:56.850Z,22.42
2019-03-24T00:51:31.297Z,23.70
2019-03-24T00:54:05.950Z,23.55
2019-03-24T00:56:40.566Z,23.57
2019-03-24T00:59:15.217Z,23.35
2019-03-24T01:01:49.607Z,23.77
2019-03-24T01:04:24.045Z,23.00
2019-03-24T01:06:58.757Z,24.15
2019-03-24T01:09:33.366Z,23.95
2019-03-24T01:12:08.128Z,23.40
2019-03-24T01:14:43.255Z,23.32
2019-03-24T01:17:17.842Z,23.90
2019-03-24T01:19:52.404Z,24.32
2019-03-24T01:22:26.862Z,23.50
2019-03-24T01:25:01.109Z,23.50
2019-03-24T01:27:35.656Z,23.83
2019-03-24T01:30:10.835Z,24.12
2019-03-24T01:32:45.141Z,23.83
2019-03-24T01:35:19.604Z,23.65
2019-03-24T01:37:53.921Z,25.55
2019-03-24T01:40:28.414Z,24.98
2019-03-24T01:43:02.803Z,24.27
2019-03-24T01:45:38.936Z,24.50
2019-03-24T01:48:13.593Z,24.85
2019-03-24T01:50:48.173Z,25.27
2019-03-24T01:53:22.798Z,24.07
2019-03-24T01:55:57.414Z,25.12
2019-03-24T01:58:32.152Z,24.70
2019-03-24T02:01:06.893Z,25.65
2019-03-24T02:03:41.375Z,25.85
2019-03-24T02:06:16.019Z,25.00
2019-03-24T02:08:50.630Z,25.30
2019-03-24T02:11:25.195Z,25.32
2019-03-24T02:13:59.879Z,25.45
2019-03-24T02:16:35.171Z,25.72
2019-03-24T02:19:09.744Z,25.52
2019-03-24T02:21:44.427Z,25.92
2019-03-24T02:24:18.762Z,25.75
2019-03-24T02:26:53.503Z,25.95
2019-03-24T02:29:29.009Z,27.00
2019-03-24T02:32:03.773Z,26.23
2019-03-24T02:34:38.186Z,25.37
2019-03-24T02:37:12.729Z,27.50
2019-03-24T02:39:47.501Z,27.27
2019-03-24T02:42:22.256Z,27.98
2019-03-24T02:44:56.805Z,27.13
2019-03-24T02:47:32.280Z,27.05
2019-03-24T02:50:07.128Z,28.65
2019-03-24T02:52:41.506Z,27.67
2019-03-24T02:55:16.179Z,27.75
2019-03-24T02:57:50.758Z,28.30
2019-03-24T03:00:25.389Z,29.30
2019-03-24T03:03:00.073Z,29.18
2019-03-24T03:05:34.473Z,29.65
2019-03-24T03:08:09.141Z,29.95
2019-03-24T03:10:43.592Z,29.45
2019-03-24T03:13:19.310Z,29.52
2019-03-24T03:15:53.822Z,28.85
2019-03-24T03:18:28.080Z,29.10
2019-03-24T03:21:02.547Z,31.15
2019-03-24T03:23:37.137Z,29.63
2019-03-24T03:26:11.635Z,29.80
2019-03-24T03:28:46.319Z,28.98
2019-03-24T03:31:20.716Z,29.12
2019-03-24T03:33:55.201Z,29.27
2019-03-24T03:36:29.853Z,29.42
2019-03-24T03:39:05.423Z,28.75
2019-03-24T03:41:40.035Z,29.35
2019-03-24T03:44:14.474Z,27.93
2019-03-24T03:46:52.994Z,29.20
2019-03-24T03:49:25.530Z,29.10
2019-03-24T03:52:00.230Z,28.42
2019-03-24T03:54:34.899Z,28.17
2019-03-24T03:57:09.599Z,30.02
2019-03-24T03:59:44.197Z,29.07
2019-03-24T04:02:18.779Z,28.23
2019-03-24T04:04:53.504Z,27.98
2019-03-24T04:07:27.928Z,28.60
2019-03-24T04:10:02.352Z,28.10
2019-03-24T04:12:36.744Z,29.25
2019-03-24T04:15:12.471Z,28.47
2019-03-24T04:17:46.981Z,28.90
2019-03-24T04:20:21.556Z,28.83
2019-03-24T04:22:56.223Z,28.52
2019-03-24T04:25:30.827Z,28.20
2019-03-24T04:28:05.625Z,27.80
2019-03-24T04:30:40.053Z,27.85
2019-03-24T04:33:14.491Z,29.27
2019-03-24T04:35:48.944Z,27.98
2019-03-24T04:38:23.326Z,28.27
2019-03-24T04:40:58.135Z,27.75
2019-03-24T04:43:32.565Z,27.50
2019-03-24T04:46:07.693Z,28.17
2019-03-24T04:48:41.999Z,27.35
2019-03-24T04:51:16.681Z,27.35
2019-03-24T04:53:51.416Z,26.85
2019-03-24T04:56:26.206Z,27.37
2019-03-24T04:59:00.837Z,26.57
2019-03-24T05:01:35.265Z,27.25
2019-03-24T05:04:09.863Z,27.32
2019-03-24T05:06:45.057Z,25.80
2019-03-24T05:09:20.557Z,26.10
2019-03-24T05:11:54.874Z,25.60
2019-03-24T05:14:29.494Z,26.35
2019-03-24T05:17:04.056Z,26.87
2019-03-24T05:19:38.865Z,26.17
2019-03-24T05:22:13.682Z,25.88
2019-03-24T05:24:48.074Z,25.68
2019-03-24T05:27:22.602Z,26.45
2019-03-24T05:29:57.319Z,25.68
2019-03-24T05:32:31.603Z,25.52
2019-03-24T05:35:06.492Z,26.15
2019-03-24T05:37:41.245Z,26.82
2019-03-24T05:40:15.674Z,25.85
2019-03-24T05:42:50.295Z,24.95
2019-03-24T05:45:24.977Z,24.55
2019-03-24T05:47:59.601Z,25.68
2019-03-24T05:50:34.183Z,25.35
2019-03-24T05:53:08.849Z,25.23
2019-03-24T05:55:43.543Z,25.23
2019-03-24T05:58:17.930Z,25.40
2019-03-24T06:00:52.412Z,24.77
2019-03-24T06:03:26.770Z,23.95
2019-03-24T06:06:01.142Z,24.82
2019-03-24T06:08:35.894Z,24.43
2019-03-24T06:11:10.981Z,25.05
2019-03-24T06:13:45.469Z,24.02
2019-03-24T06:16:20.077Z,24.10
2019-03-24T06:18:54.906Z,24.47
2019-03-24T06:21:29.548Z,24.45
2019-03-24T06:24:04.239Z,24.37
2019-03-24T06:26:38.807Z,25.02
2019-03-24T06:29:13.420Z,25.27
2019-03-24T06:31:47.857Z,23.87
2019-03-24T06:34:22.279Z,23.45
2019-03-24T06:36:57.872Z,24.80
2019-03-24T06:39:32.559Z,24.07
2019-03-24T06:42:07.166Z,23.55
2019-03-24T06:44:42.083Z,24.00
2019-03-24T06:47:16.404Z,24.07
2019-03-24T06:49:51.223Z,22.50
2019-03-24T06:52:25.729Z,23.73
2019-03-24T06:55:00.452Z,23.38
2019-03-24T06:57:35.114Z,23.10
2019-03-24T07:00:10.322Z,22.45
2019-03-24T07:02:44.914Z,22.87
2019-03-24T07:05:19.670Z,23.27
2019-03-24T07:07:54.563Z,23.22
2019-03-24T07:10:29.435Z,22.32
2019-03-24T07:13:04.107Z,23.00
2019-03-24T07:15:39.028Z,23.12
2019-03-24T07:18:13.608Z,22.82
2019-03-24T07:20:48.240Z,23.30
2019-03-24T07:23:22.613Z,23.38
2019-03-24T07:25:57.095Z,22.40
2019-03-24T07:28:31.563Z,22.52
2019-03-24T07:31:06.366Z,22.30
2019-03-24T07:33:41.326Z,22.40
2019-03-24T07:36:15.865Z,21.97
2019-03-24T07:38:50.492Z,22.80
2019-03-24T07:41:25.131Z,22.37
2019-03-24T07:43:59.840Z,22.00
2019-03-24T07:46:34.349Z,22.02
2019-03-24T07:49:09.149Z,22.15
2019-03-24T07:51:43.736Z,22.15
2019-03-24T07:54:18.429Z,21.57
2019-03-24T07:56:52.929Z,22.50
2019-03-24T07:59:29.059Z,21.95
2019-03-24T08:02:03.566Z,21.97
2019-03-24T08:04:38.313Z,21.37
2019-03-24T08:07:12.711Z,21.55
2019-03-24T08:09:48.148Z,21.35
2019-03-24T08:12:22.578Z,21.68
2019-03-24T08:14:59.874Z,21.75
2019-03-24T08:17:33.949Z,20.80
2019-03-24T08:20:08.869Z,20.82
2019-03-24T08:22:43.701Z,20.75
2019-03-24T08:25:19.255Z,21.02
2019-03-24T08:27:53.857Z,21.05
2019-03-24T08:30:46.371Z,20.55
2019-03-24T08:33:20.971Z,20.10
2019-03-24T08:35:55.713Z,20.68
2019-03-24T08:38:30.279Z,20.27
2019-03-24T08:41:05.121Z,20.25
2019-03-24T08:43:39.576Z,19.40
2019-03-24T08:46:13.960Z,19.70
2019-03-24T08:48:49.393Z,20.00
2019-03-24T08:51:23.859Z,19.85
2019-03-24T08:53:58.211Z,19.80
2019-03-24T08:56:32.701Z,20.30
2019-03-24T08:59:07.184Z,19.52
2019-03-24T09:01:41.872Z,19.35
2019-03-24T09:04:16.407Z,19.20
2019-03-24T09:06:50.990Z,19.75
2019-03-24T09:09:25.374Z,19.45
2019-03-24T09:12:00.062Z,18.65
2019-03-24T09:14:34.418Z,19.42
2019-03-24T09:17:08.973Z,19.15
2019-03-24T09:19:43.450Z,19.67
2019-03-24T09:22:18.396Z,18.55
2019-03-24T09:24:53.244Z,19.07
2019-03-24T09:27:28.206Z,18.45
2019-03-24T09:30:03.377Z,17.92
2019-03-24T09:32:38.620Z,18.27
2019-03-24T09:35:13.457Z,18.23
2019-03-24T09:37:48.318Z,18.37
2019-03-24T09:40:29.581Z,18.52
2019-03-24T09:43:05.503Z,19.15
2019-03-24T09:45:40.085Z,18.42
2019-03-24T09:48:14.879Z,18.95
2019-03-24T09:50:49.634Z,18.42
2019-03-24T09:53:25.234Z,18.87
2019-03-24T09:56:00.281Z,19.20
2019-03-24T09:58:35.616Z,18.77
2019-03-24T10:01:11.391Z,17.87
2019-03-24T10:03:46.355Z,18.10
2019-03-24T10:06:21.327Z,19.00
2019-03-24T10:08:56.241Z,18.07
2019-03-24T10:11:31.034Z,18.45
2019-03-24T10:14:05.898Z,17.45
2019-03-24T10:16:40.869Z,18.30
2019-03-24T10:19:15.722Z,18.15
2019-03-24T10:21:50.217Z,18.12
2019-03-24T10:24:24.526Z,17.52
2019-03-24T10:26:59.063Z,18.30
2019-03-24T10:29:33.754Z,17.85
2019-03-24T10:32:08.492Z,17.15
2019-03-24T10:34:42.956Z,17.52
2019-03-24T10:37:17.773Z,17.73
2019-03-24T10:39:53.476Z,17.25
2019-03-24T10:42:28.112Z,16.80
2019-03-24T10:45:02.686Z,17.55
2019-03-24T10:47:37.354Z,17.52
2019-03-24T10:50:14.453Z,17.05
2019-03-24T10:52:49.554Z,18.05
2019-03-24T10:55:24.290Z,16.77
2019-03-24T10:57:58.956Z,16.70
2019-03-24T11:00:51.618Z,16.90
2019-03-24T11:05:58.779Z,17.05
2019-03-24T11:08:33.549Z,16.67
2019-03-24T11:11:08.248Z,17.02
2019-03-24T11:13:42.793Z,17.25
2019-03-24T11:16:17.371Z,15.93
2019-03-24T11:18:51.891Z,16.62
2019-03-24T11:21:26.665Z,16.05
2019-03-24T11:24:01.161Z,16.30
2019-03-24T11:26:35.707Z,15.35
2019-03-24T11:29:10.170Z,15.40
2019-03-24T11:31:45.085Z,16.37
2019-03-24T11:34:19.646Z,16.15
2019-03-24T11:36:54.403Z,15.80
2019-03-24T11:39:29.864Z,16.32
2019-03-24T11:42:04.432Z,15.68
2019-03-24T11:44:39.046Z,15.70
2019-03-24T11:47:13.671Z,15.40
2019-03-24T11:49:49.207Z,15.68
2019-03-24T11:52:23.895Z,15.30
2019-03-24T11:54:58.600Z,15.60
2019-03-24T11:57:33.392Z,15.25
2019-03-24T12:00:08.923Z,16.25
2019-03-24T12:02:43.492Z,15.20
2019-03-24T12:05:17.946Z,15.45
2019-03-24T12:07:52.505Z,15.48
2019-03-24T12:10:27.012Z,15.25
2019-03-24T12:13:01.327Z,14.98
2019-03-24T12:15:35.776Z,14.40
2019-03-24T12:18:10.389Z,14.85
2019-03-24T12:20:45.175Z,14.98
2019-03-24T12:23:21.020Z,15.25
2019-03-24T12:25:55.849Z,15.55
2019-03-24T12:28:30.459Z,14.45
2019-03-24T12:31:05.326Z,14.75
2019-03-24T12:33:40.071Z,14.78
2019-03-24T12:36:14.596Z,15.08
2019-03-24T12:38:49.267Z,14.55
2019-03-24T12:41:23.691Z,14.58
2019-03-24T12:43:58.153Z,14.50
2019-03-24T12:46:32.669Z,14.73
2019-03-24T12:49:07.431Z,14.68
2019-03-24T12:51:42.008Z,14.55
2019-03-24T12:54:16.871Z,14.95
2019-03-24T12:56:51.654Z,14.60
2019-03-24T12:59:26.287Z,14.45
2019-03-24T13:02:00.788Z,14.55
2019-03-24T13:04:35.430Z,14.63
2019-03-24T13:07:10.011Z,15.18
2019-03-24T13:09:44.619Z,14.87
2019-03-24T13:12:19.031Z,15.40
2019-03-24T13:14:53.868Z,14.65
2019-03-24T13:17:28.386Z,14.70
2019-03-24T13:20:03.041Z,14.18
2019-03-24T13:22:37.358Z,14.40
2019-03-24T13:25:12.151Z,14.80
2019-03-24T13:27:46.571Z,14.80
2019-03-24T13:30:21.207Z,15.38
2019-03-24T13:32:55.895Z,15.58
2019-03-24T13:35:30.283Z,14.35
2019-03-24T13:38:04.716Z,15.32
2019-03-24T13:40:39.446Z,15.72
2019-03-24T13:43:14.000Z,15.88
2019-03-24T13:45:48.626Z,15.85
2019-03-24T13:48:23.014Z,15.70
2019-03-24T13:50:57.400Z,15.50
2019-03-24T13:53:32.063Z,15.28
2019-03-24T13:56:07.478Z,15.53
2019-03-24T13:58:42.030Z,15.40
2019-03-24T14:01:17.243Z,15.53
2019-03-24T14:03:51.857Z,15.68
2019-03-24T14:06:26.539Z,15.75
2019-03-24T14:09:01.211Z,16.23
2019-03-24T14:11:37.332Z,16.00
2019-03-24T14:14:11.895Z,15.68
2019-03-24T14:16:46.796Z,15.95
2019-03-24T14:19:21.450Z,16.05
2019-03-24T14:21:55.966Z,15.68
2019-03-24T14:24:30.584Z,15.85
2019-03-24T14:27:05.131Z,16.20
2019-03-24T14:29:39.734Z,16.20
2019-03-24T14:32:14.209Z,16.90
2019-03-24T14:34:48.852Z,17.07
2019-03-24T14:37:23.784Z,15.98
2019-03-24T14:39:58.264Z,16.97
2019-03-24T14:42:33.116Z,17.30
2019-03-24T14:45:08.369Z,16.40
2019-03-24T14:47:42.952Z,17.40
2019-03-24T14:50:17.848Z,17.10
2019-03-24T14:52:52.717Z,18.25
2019-03-24T14:55:27.436Z,17.70
2019-03-24T14:58:02.080Z,17.52
2019-03-24T15:00:41.385Z,18.80
2019-03-24T15:03:16.882Z,18.48
2019-03-24T15:05:51.686Z,17.77
2019-03-24T15:08:27.491Z,18.80
2019-03-24T15:11:02.322Z,19.23
2019-03-24T15:13:36.786Z,19.50
2019-03-24T15:16:11.624Z,23.32
2019-03-24T15:18:46.201Z,21.27
2019-03-24T15:21:20.786Z,20.55
2019-03-24T15:23:55.253Z,19.37
2019-03-24T15:26:30.016Z,20.48
2019-03-24T15:29:04.373Z,20.05
2019-03-24T15:31:38.786Z,20.12
2019-03-24T15:34:13.299Z,21.82
2019-03-24T15:36:47.629Z,22.90
2019-03-24T15:39:22.052Z,22.80
2019-03-24T15:41:56.575Z,20.92
2019-03-24T15:44:31.891Z,19.23
2019-03-24T15:47:06.440Z,21.42
2019-03-24T15:49:40.856Z,21.55
2019-03-24T15:52:15.349Z,20.75
2019-03-24T15:54:49.771Z,22.15
2019-03-24T15:57:24.319Z,21.57
2019-03-24T15:59:58.905Z,21.23
2019-03-24T16:02:33.487Z,21.60
2019-03-24T16:05:08.305Z,20.90
2019-03-24T16:07:42.766Z,21.52
2019-03-24T16:10:17.516Z,21.65
2019-03-24T16:12:52.250Z,21.77
2019-03-24T16:15:26.897Z,21.25
2019-03-24T16:18:01.731Z,21.25
2019-03-24T16:20:36.375Z,20.68
2019-03-24T16:23:10.898Z,21.52
2019-03-24T16:25:45.493Z,21.85
2019-03-24T16:28:19.986Z,21.27
2019-03-24T16:30:54.573Z,21.97
2019-03-24T16:33:30.117Z,20.62
2019-03-24T16:36:04.834Z,21.77
2019-03-24T16:38:48.540Z,21.23
2019-03-24T16:41:16.567Z,21.20
2019-03-24T16:43:51.167Z,21.23
2019-03-24T16:46:25.601Z,21.48
2019-03-24T16:48:59.969Z,22.32
2019-03-24T16:51:38.723Z,21.95
2019-03-24T16:54:11.069Z,21.37
2019-03-24T16:56:45.606Z,22.10
2019-03-24T16:59:20.019Z,21.20
2019-03-24T17:01:54.548Z,21.42
2019-03-24T17:04:29.076Z,22.35
2019-03-24T17:07:03.561Z,22.48
2019-03-24T17:09:38.042Z,22.55
2019-03-24T17:12:12.796Z,21.00
2019-03-24T17:14:47.585Z,21.07
2019-03-24T17:17:22.239Z,21.93
2019-03-24T17:19:56.703Z,22.07
2019-03-24T17:22:31.166Z,23.05
2019-03-24T17:25:05.844Z,22.27
2019-03-24T17:27:40.455Z,21.62
2019-03-24T17:30:16.315Z,21.40
2019-03-24T17:32:50.634Z,22.27
2019-03-24T17:35:25.334Z,22.60
2019-03-24T17:37:59.655Z,22.22
2019-03-24T17:40:38.863Z,22.37
2019-03-24T17:43:10.495Z,22.27
2019-03-24T17:45:45.029Z,21.45
2019-03-24T17:48:19.530Z,22.20
2019-03-24T17:50:54.176Z,22.82
2019-03-24T17:53:28.826Z,21.82
2019-03-24T17:56:03.584Z,22.13
2019-03-24T17:58:38.180Z,22.17
2019-03-24T18:01:13.615Z,21.25
2019-03-24T18:03:48.670Z,22.87
2019-03-24T18:06:23.091Z,21.93
2019-03-24T18:08:57.940Z,22.10
2019-03-24T18:11:32.262Z,21.93
2019-03-24T18:14:08.184Z,22.52
2019-03-24T18:16:42.757Z,22.37
2019-03-24T18:19:17.189Z,22.10
2019-03-24T18:21:52.730Z,22.22
2019-03-24T18:24:27.463Z,22.15
2019-03-24T18:27:02.004Z,22.00
2019-03-24T18:29:36.458Z,22.25
2019-03-24T18:32:10.921Z,22.85
2019-03-24T18:34:45.855Z,22.30
2019-03-24T18:37:20.464Z,22.85
2019-03-24T18:39:55.395Z,22.32
2019-03-24T18:42:29.806Z,22.75
2019-03-24T18:45:04.489Z,22.32
2019-03-24T18:47:39.452Z,22.95
2019-03-24T18:50:14.252Z,23.07
2019-03-24T18:52:50.189Z,22.65
2019-03-24T18:55:25.020Z,22.25
2019-03-24T18:57:59.795Z,23.15
2019-03-24T19:00:34.367Z,22.00
2019-03-24T19:03:09.067Z,22.32
2019-03-24T19:05:43.521Z,23.07
2019-03-24T19:08:18.158Z,22.62
2019-03-24T19:10:52.724Z,23.27
2019-03-24T19:13:27.395Z,23.35
2019-03-24T19:16:02.034Z,23.15
2019-03-24T19:18:36.641Z,23.07
2019-03-24T19:21:11.260Z,22.87
2019-03-24T19:23:45.997Z,23.40
2019-03-24T19:26:20.654Z,23.52
2019-03-24T19:28:55.446Z,23.80
2019-03-24T19:31:30.256Z,24.27
2019-03-24T19:34:05.098Z,24.18
2019-03-24T19:36:40.021Z,23.70
2019-03-24T19:39:14.844Z,23.65
2019-03-24T19:41:49.248Z,24.00
2019-03-24T19:44:23.969Z,24.35
2019-03-24T19:46:58.310Z,23.65
2019-03-24T19:49:33.113Z,23.83
2019-03-24T19:52:07.802Z,24.07
2019-03-24T19:54:42.487Z,23.73
2019-03-24T19:57:17.123Z,23.95
2019-03-24T19:59:51.796Z,24.25
2019-03-24T20:02:26.253Z,24.50
2019-03-24T20:05:00.643Z,25.50
2019-03-24T20:07:35.370Z,24.43
2019-03-24T20:10:10.134Z,24.55
2019-03-24T20:12:44.927Z,24.80
2019-03-24T20:15:19.624Z,26.05
2019-03-24T20:17:54.377Z,25.72
2019-03-24T20:20:28.941Z,25.55
2019-03-24T20:23:03.269Z,24.98
2019-03-24T20:25:37.836Z,25.15
2019-03-24T20:28:12.385Z,25.23
2019-03-24T20:30:46.651Z,23.75
2019-03-24T20:33:21.973Z,24.82
2019-03-24T20:35:56.441Z,24.37
2019-03-24T20:38:31.983Z,24.15
2019-03-24T20:41:06.682Z,25.32
2019-03-24T20:43:41.095Z,25.75
2019-03-24T20:46:15.561Z,25.75
2019-03-24T20:48:50.093Z,25.88
2019-03-24T20:51:25.051Z,25.43
2019-03-24T20:53:59.813Z,26.07
2019-03-24T20:56:34.219Z,25.65
2019-03-24T20:59:08.831Z,25.68
2019-03-24T21:01:43.401Z,26.70
2019-03-24T21:04:20.178Z,25.80
2019-03-24T21:06:54.474Z,25.40
2019-03-24T21:09:28.927Z,27.32
2019-03-24T21:12:03.618Z,28.52
2019-03-24T21:14:37.978Z,26.87
2019-03-24T21:17:12.802Z,27.27
2019-03-24T21:19:47.297Z,27.27
2019-03-24T21:22:22.495Z,27.85
2019-03-24T21:24:56.895Z,27.32
2019-03-24T21:27:31.672Z,28.00
2019-03-24T21:30:06.314Z,27.90
2019-03-24T21:32:40.744Z,28.32
2019-03-24T21:35:16.405Z,28.17
2019-03-24T21:37:51.293Z,28.45
2019-03-24T21:40:25.664Z,29.63
2019-03-24T21:43:00.573Z,29.15
2019-03-24T21:45:35.370Z,29.55
2019-03-24T21:48:10.114Z,29.40
2019-03-24T21:50:44.585Z,29.40
2019-03-24T21:53:18.978Z,29.32
2019-03-24T21:55:53.384Z,30.32
2019-03-24T21:58:27.835Z,30.08
2019-03-24T22:01:02.204Z,29.98
2019-03-24T22:03:37.102Z,31.10
2019-03-24T22:06:11.656Z,30.85
2019-03-24T22:08:46.511Z,30.15
2019-03-24T22:11:20.996Z,31.40
2019-03-24T22:13:55.483Z,31.15
2019-03-24T22:16:30.168Z,31.42
2019-03-24T22:19:04.876Z,32.55
2019-03-24T22:21:40.273Z,31.17
2019-03-24T22:24:14.890Z,32.13
2019-03-24T22:26:49.299Z,31.95
2019-03-24T22:29:24.137Z,32.00
2019-03-24T22:31:58.651Z,32.55
2019-03-24T22:34:33.346Z,33.33
2019-03-24T22:37:15.763Z,33.45
2019-03-24T22:39:45.209Z,32.95
2019-03-24T22:42:19.659Z,33.38
2019-03-24T22:44:54.658Z,33.40
2019-03-24T22:47:28.970Z,32.63
2019-03-24T22:50:03.560Z,33.15
2019-03-24T22:52:38.051Z,33.63
2019-03-24T22:55:12.957Z,33.98
2019-03-24T22:57:47.340Z,34.55
2019-03-24T23:00:26.751Z,34.35
2019-03-24T23:03:02.443Z,34.33
2019-03-24T23:05:37.216Z,34.23
2019-03-24T23:08:11.925Z,34.73
2019-03-24T23:10:46.545Z,35.70
2019-03-24T23:13:21.967Z,35.70
2019-03-24T23:15:56.555Z,36.45
2019-03-24T23:18:31.275Z,35.58
2019-03-24T23:21:05.851Z,36.13
2019-03-24T23:23:40.416Z,36.00
2019-03-24T23:26:15.050Z,36.10
2019-03-24T23:28:49.506Z,37.17
2019-03-24T23:31:24.178Z,36.63
2019-03-24T23:33:58.741Z,37.00
2019-03-24T23:36:33.161Z,36.80
2019-03-24T23:39:09.175Z,35.83
2019-03-24T23:41:43.956Z,36.48
2019-03-24T23:44:18.521Z,37.25
2019-03-24T23:46:53.088Z,36.80
2019-03-24T23:49:28.335Z,37.35
2019-03-24T23:52:03.060Z,37.25
2019-03-24T23:54:37.424Z,37.30
2019-03-24T23:57:12.011Z,36.35
2019-03-24T23:59:46.520Z,36.77
